sensor_id;sensor_type;location;lat;lon;timestamp;P1;durP1;ratioP1;P2;durP2;ratioP2
42912;SDS011;50720;54.324;18.558;2023-11-21T00:00:14;17.75;;;7.22;;
42912;SDS011;50720;54.324;18.558;2023-11-21T00:02:58;18.92;;;7.13;;
42912;SDS011;50720;54.324;18.558;2023-11-21T00:05:42;15.20;;;7.15;;
42912;SDS011;50720;54.324;18.558;2023-11-21T00:08:25;15.05;;;7.97;;
42912;SDS011;50720;54.324;18.558;2023-11-21T00:11:09;15.65;;;7.57;;
42912;SDS011;50720;54.324;18.558;2023-11-21T00:13:53;10.93;;;6.35;;
42912;SDS011;50720;54.324;18.558;2023-11-21T00:16:37;12.88;;;5.72;;
42912;SDS011;50720;54.324;18.558;2023-11-21T00:19:21;13.73;;;6.50;;
42912;SDS011;50720;54.324;18.558;2023-11-21T00:22:05;12.30;;;6.85;;
42912;SDS011;50720;54.324;18.558;2023-11-21T00:24:49;9.55;;;5.28;;
42912;SDS011;50720;54.324;18.558;2023-11-21T00:27:32;11.00;;;5.53;;
42912;SDS011;50720;54.324;18.558;2023-11-21T00:30:18;10.73;;;5.22;;
42912;SDS011;50720;54.324;18.558;2023-11-21T00:33:03;8.43;;;5.18;;
42912;SDS011;50720;54.324;18.558;2023-11-21T00:35:47;12.10;;;5.65;;
42912;SDS011;50720;54.324;18.558;2023-11-21T00:38:30;11.55;;;5.35;;
42912;SDS011;50720;54.324;18.558;2023-11-21T00:41:14;10.23;;;5.22;;
42912;SDS011;50720;54.324;18.558;2023-11-21T00:43:57;10.20;;;5.65;;
42912;SDS011;50720;54.324;18.558;2023-11-21T00:46:44;13.77;;;5.07;;
42912;SDS011;50720;54.324;18.558;2023-11-21T00:49:27;11.05;;;4.47;;
42912;SDS011;50720;54.324;18.558;2023-11-21T00:52:11;10.15;;;4.93;;
42912;SDS011;50720;54.324;18.558;2023-11-21T00:54:54;14.88;;;5.95;;
42912;SDS011;50720;54.324;18.558;2023-11-21T00:57:37;12.40;;;5.35;;
42912;SDS011;50720;54.324;18.558;2023-11-21T01:00:21;11.13;;;4.80;;
42912;SDS011;50720;54.324;18.558;2023-11-21T01:03:06;7.65;;;4.25;;
42912;SDS011;50720;54.324;18.558;2023-11-21T01:05:50;7.15;;;4.30;;
42912;SDS011;50720;54.324;18.558;2023-11-21T01:08:34;13.80;;;4.72;;
42912;SDS011;50720;54.324;18.558;2023-11-21T01:11:18;8.88;;;4.68;;
42912;SDS011;50720;54.324;18.558;2023-11-21T01:14:01;8.13;;;4.57;;
42912;SDS011;50720;54.324;18.558;2023-11-21T01:16:46;11.43;;;4.57;;
42912;SDS011;50720;54.324;18.558;2023-11-21T01:19:32;9.20;;;5.07;;
42912;SDS011;50720;54.324;18.558;2023-11-21T01:22:15;7.00;;;4.18;;
42912;SDS011;50720;54.324;18.558;2023-11-21T01:25:03;10.18;;;4.70;;
42912;SDS011;50720;54.324;18.558;2023-11-21T01:27:49;7.72;;;4.15;;
42912;SDS011;50720;54.324;18.558;2023-11-21T01:30:32;9.85;;;4.72;;
42912;SDS011;50720;54.324;18.558;2023-11-21T01:33:17;10.07;;;5.22;;
42912;SDS011;50720;54.324;18.558;2023-11-21T01:36:03;11.88;;;4.30;;
42912;SDS011;50720;54.324;18.558;2023-11-21T01:38:48;9.15;;;4.65;;
42912;SDS011;50720;54.324;18.558;2023-11-21T01:41:31;7.63;;;3.80;;
42912;SDS011;50720;54.324;18.558;2023-11-21T01:44:16;6.93;;;3.47;;
42912;SDS011;50720;54.324;18.558;2023-11-21T01:47:01;8.27;;;4.28;;
42912;SDS011;50720;54.324;18.558;2023-11-21T01:49:46;6.88;;;3.42;;
42912;SDS011;50720;54.324;18.558;2023-11-21T01:52:32;11.15;;;4.63;;
42912;SDS011;50720;54.324;18.558;2023-11-21T01:55:17;8.35;;;4.18;;
42912;SDS011;50720;54.324;18.558;2023-11-21T01:58:09;6.80;;;3.55;;
42912;SDS011;50720;54.324;18.558;2023-11-21T02:00:54;5.78;;;3.88;;
42912;SDS011;50720;54.324;18.558;2023-11-21T02:03:38;9.77;;;4.15;;
42912;SDS011;50720;54.324;18.558;2023-11-21T02:06:21;9.15;;;3.67;;
42912;SDS011;50720;54.324;18.558;2023-11-21T02:09:07;8.57;;;3.58;;
42912;SDS011;50720;54.324;18.558;2023-11-21T02:11:51;6.32;;;3.42;;
42912;SDS011;50720;54.324;18.558;2023-11-21T02:14:39;9.93;;;3.95;;
42912;SDS011;50720;54.324;18.558;2023-11-21T02:17:22;7.65;;;3.70;;
42912;SDS011;50720;54.324;18.558;2023-11-21T02:20:07;6.00;;;3.25;;
42912;SDS011;50720;54.324;18.558;2023-11-21T02:22:58;6.53;;;3.35;;
42912;SDS011;50720;54.324;18.558;2023-11-21T02:25:42;6.95;;;3.80;;
42912;SDS011;50720;54.324;18.558;2023-11-21T02:28:26;7.82;;;4.00;;
42912;SDS011;50720;54.324;18.558;2023-11-21T02:31:09;6.10;;;3.58;;
42912;SDS011;50720;54.324;18.558;2023-11-21T02:33:54;7.15;;;3.75;;
42912;SDS011;50720;54.324;18.558;2023-11-21T02:36:37;8.05;;;3.65;;
42912;SDS011;50720;54.324;18.558;2023-11-21T02:39:22;5.85;;;3.42;;
42912;SDS011;50720;54.324;18.558;2023-11-21T02:42:06;6.53;;;3.42;;
42912;SDS011;50720;54.324;18.558;2023-11-21T02:44:50;8.00;;;3.72;;
42912;SDS011;50720;54.324;18.558;2023-11-21T02:47:33;8.25;;;3.38;;
42912;SDS011;50720;54.324;18.558;2023-11-21T02:50:16;5.65;;;2.90;;
42912;SDS011;50720;54.324;18.558;2023-11-21T02:53:01;6.97;;;3.33;;
42912;SDS011;50720;54.324;18.558;2023-11-21T02:55:49;5.32;;;3.42;;
42912;SDS011;50720;54.324;18.558;2023-11-21T02:58:33;4.93;;;3.28;;
42912;SDS011;50720;54.324;18.558;2023-11-21T03:01:17;6.00;;;3.42;;
42912;SDS011;50720;54.324;18.558;2023-11-21T03:04:01;7.43;;;2.92;;
42912;SDS011;50720;54.324;18.558;2023-11-21T03:06:44;6.13;;;3.75;;
42912;SDS011;50720;54.324;18.558;2023-11-21T03:09:28;5.63;;;3.17;;
42912;SDS011;50720;54.324;18.558;2023-11-21T03:12:13;8.13;;;3.42;;
42912;SDS011;50720;54.324;18.558;2023-11-21T03:14:57;6.53;;;3.25;;
42912;SDS011;50720;54.324;18.558;2023-11-21T03:17:41;6.82;;;3.55;;
42912;SDS011;50720;54.324;18.558;2023-11-21T03:20:25;7.30;;;4.30;;
42912;SDS011;50720;54.324;18.558;2023-11-21T03:23:08;5.38;;;3.47;;
42912;SDS011;50720;54.324;18.558;2023-11-21T03:25:51;8.98;;;4.38;;
42912;SDS011;50720;54.324;18.558;2023-11-21T03:28:37;7.50;;;3.03;;
42912;SDS011;50720;54.324;18.558;2023-11-21T03:31:20;6.75;;;3.10;;
42912;SDS011;50720;54.324;18.558;2023-11-21T03:34:04;6.75;;;3.60;;
42912;SDS011;50720;54.324;18.558;2023-11-21T03:36:48;5.15;;;3.47;;
42912;SDS011;50720;54.324;18.558;2023-11-21T03:39:31;5.55;;;3.45;;
42912;SDS011;50720;54.324;18.558;2023-11-21T03:42:15;6.45;;;3.22;;
42912;SDS011;50720;54.324;18.558;2023-11-21T03:45:00;9.07;;;4.03;;
42912;SDS011;50720;54.324;18.558;2023-11-21T03:47:44;5.43;;;3.30;;
42912;SDS011;50720;54.324;18.558;2023-11-21T03:50:28;8.52;;;3.78;;
42912;SDS011;50720;54.324;18.558;2023-11-21T03:53:11;4.75;;;3.13;;
42912;SDS011;50720;54.324;18.558;2023-11-21T03:55:54;5.07;;;2.83;;
42912;SDS011;50720;54.324;18.558;2023-11-21T03:58:38;7.97;;;3.35;;
42912;SDS011;50720;54.324;18.558;2023-11-21T04:01:24;9.35;;;3.20;;
42912;SDS011;50720;54.324;18.558;2023-11-21T04:04:07;5.60;;;3.20;;
42912;SDS011;50720;54.324;18.558;2023-11-21T04:06:51;6.55;;;3.50;;
42912;SDS011;50720;54.324;18.558;2023-11-21T04:09:35;6.35;;;3.97;;
42912;SDS011;50720;54.324;18.558;2023-11-21T04:12:19;6.55;;;3.63;;
42912;SDS011;50720;54.324;18.558;2023-11-21T04:15:03;7.05;;;3.63;;
42912;SDS011;50720;54.324;18.558;2023-11-21T04:17:48;6.25;;;3.17;;
42912;SDS011;50720;54.324;18.558;2023-11-21T04:20:32;6.22;;;2.97;;
42912;SDS011;50720;54.324;18.558;2023-11-21T04:23:16;6.72;;;3.67;;
42912;SDS011;50720;54.324;18.558;2023-11-21T04:25:59;5.63;;;3.42;;
42912;SDS011;50720;54.324;18.558;2023-11-21T04:28:44;10.70;;;6.30;;
42912;SDS011;50720;54.324;18.558;2023-11-21T04:31:27;6.95;;;4.28;;
42912;SDS011;50720;54.324;18.558;2023-11-21T04:34:12;6.95;;;3.92;;
42912;SDS011;50720;54.324;18.558;2023-11-21T04:36:55;8.98;;;3.83;;
42912;SDS011;50720;54.324;18.558;2023-11-21T04:39:39;7.40;;;4.03;;
42912;SDS011;50720;54.324;18.558;2023-11-21T04:42:22;6.35;;;4.13;;
42912;SDS011;50720;54.324;18.558;2023-11-21T04:45:06;5.28;;;3.17;;
42912;SDS011;50720;54.324;18.558;2023-11-21T04:47:53;6.60;;;4.03;;
42912;SDS011;50720;54.324;18.558;2023-11-21T04:50:39;6.57;;;3.40;;
42912;SDS011;50720;54.324;18.558;2023-11-21T04:53:22;6.53;;;3.70;;
42912;SDS011;50720;54.324;18.558;2023-11-21T04:56:06;7.68;;;3.65;;
42912;SDS011;50720;54.324;18.558;2023-11-21T04:58:50;8.68;;;3.85;;
42912;SDS011;50720;54.324;18.558;2023-11-21T05:01:33;7.72;;;4.05;;
42912;SDS011;50720;54.324;18.558;2023-11-21T05:04:18;8.63;;;4.60;;
42912;SDS011;50720;54.324;18.558;2023-11-21T05:07:03;8.02;;;4.15;;
42912;SDS011;50720;54.324;18.558;2023-11-21T05:09:47;8.77;;;4.68;;
42912;SDS011;50720;54.324;18.558;2023-11-21T05:12:31;9.85;;;5.25;;
42912;SDS011;50720;54.324;18.558;2023-11-21T05:15:16;9.25;;;4.55;;
42912;SDS011;50720;54.324;18.558;2023-11-21T05:18:00;8.30;;;4.38;;
42912;SDS011;50720;54.324;18.558;2023-11-21T05:20:43;9.30;;;4.97;;
42912;SDS011;50720;54.324;18.558;2023-11-21T05:23:28;11.13;;;4.15;;
42912;SDS011;50720;54.324;18.558;2023-11-21T05:26:12;7.72;;;4.18;;
42912;SDS011;50720;54.324;18.558;2023-11-21T05:28:55;13.38;;;5.90;;
42912;SDS011;50720;54.324;18.558;2023-11-21T05:31:38;8.50;;;4.40;;
42912;SDS011;50720;54.324;18.558;2023-11-21T05:34:22;14.63;;;6.07;;
42912;SDS011;50720;54.324;18.558;2023-11-21T05:37:06;13.55;;;6.18;;
42912;SDS011;50720;54.324;18.558;2023-11-21T05:39:51;10.38;;;5.03;;
42912;SDS011;50720;54.324;18.558;2023-11-21T05:42:34;9.68;;;5.72;;
42912;SDS011;50720;54.324;18.558;2023-11-21T05:45:20;13.90;;;5.88;;
42912;SDS011;50720;54.324;18.558;2023-11-21T05:48:04;11.63;;;4.93;;
42912;SDS011;50720;54.324;18.558;2023-11-21T05:50:47;8.48;;;4.88;;
42912;SDS011;50720;54.324;18.558;2023-11-21T05:53:31;9.63;;;5.55;;
42912;SDS011;50720;54.324;18.558;2023-11-21T05:56:16;12.60;;;4.95;;
42912;SDS011;50720;54.324;18.558;2023-11-21T05:58:59;11.93;;;4.90;;
42912;SDS011;50720;54.324;18.558;2023-11-21T06:01:45;11.18;;;5.50;;
42912;SDS011;50720;54.324;18.558;2023-11-21T06:04:28;11.05;;;5.57;;
42912;SDS011;50720;54.324;18.558;2023-11-21T06:07:12;11.23;;;4.75;;
42912;SDS011;50720;54.324;18.558;2023-11-21T06:09:56;11.45;;;4.30;;
42912;SDS011;50720;54.324;18.558;2023-11-21T06:12:41;10.38;;;4.65;;
42912;SDS011;50720;54.324;18.558;2023-11-21T06:15:25;8.38;;;4.47;;
42912;SDS011;50720;54.324;18.558;2023-11-21T06:18:08;12.10;;;4.35;;
42912;SDS011;50720;54.324;18.558;2023-11-21T06:20:56;9.93;;;4.53;;
42912;SDS011;50720;54.324;18.558;2023-11-21T06:23:42;9.85;;;4.68;;
42912;SDS011;50720;54.324;18.558;2023-11-21T06:26:25;12.63;;;4.70;;
42912;SDS011;50720;54.324;18.558;2023-11-21T06:29:11;12.57;;;5.70;;
42912;SDS011;50720;54.324;18.558;2023-11-21T06:31:55;7.78;;;4.72;;
42912;SDS011;50720;54.324;18.558;2023-11-21T06:34:40;8.32;;;5.03;;
42912;SDS011;50720;54.324;18.558;2023-11-21T06:37:23;10.43;;;6.20;;
42912;SDS011;50720;54.324;18.558;2023-11-21T06:40:07;9.25;;;4.63;;
42912;SDS011;50720;54.324;18.558;2023-11-21T06:42:51;11.38;;;6.13;;
42912;SDS011;50720;54.324;18.558;2023-11-21T06:45:38;8.48;;;4.22;;
42912;SDS011;50720;54.324;18.558;2023-11-21T06:48:21;9.25;;;4.15;;
42912;SDS011;50720;54.324;18.558;2023-11-21T06:51:05;8.40;;;4.45;;
42912;SDS011;50720;54.324;18.558;2023-11-21T06:53:49;10.00;;;4.50;;
42912;SDS011;50720;54.324;18.558;2023-11-21T06:56:32;8.70;;;4.60;;
42912;SDS011;50720;54.324;18.558;2023-11-21T06:59:16;7.80;;;4.53;;
42912;SDS011;50720;54.324;18.558;2023-11-21T07:02:01;11.50;;;4.43;;
42912;SDS011;50720;54.324;18.558;2023-11-21T07:04:46;8.80;;;4.28;;
42912;SDS011;50720;54.324;18.558;2023-11-21T07:07:30;7.13;;;3.95;;
42912;SDS011;50720;54.324;18.558;2023-11-21T07:10:15;7.75;;;4.32;;
42912;SDS011;50720;54.324;18.558;2023-11-21T07:12:59;9.02;;;4.93;;
42912;SDS011;50720;54.324;18.558;2023-11-21T07:15:42;7.50;;;4.15;;
42912;SDS011;50720;54.324;18.558;2023-11-21T07:18:27;12.13;;;4.72;;
42912;SDS011;50720;54.324;18.558;2023-11-21T07:21:11;11.93;;;4.70;;
42912;SDS011;50720;54.324;18.558;2023-11-21T07:23:55;9.75;;;4.50;;
42912;SDS011;50720;54.324;18.558;2023-11-21T07:26:39;10.40;;;5.20;;
42912;SDS011;50720;54.324;18.558;2023-11-21T07:29:23;14.90;;;4.38;;
42912;SDS011;50720;54.324;18.558;2023-11-21T07:32:07;6.05;;;4.57;;
42912;SDS011;50720;54.324;18.558;2023-11-21T07:34:53;5.65;;;4.00;;
42912;SDS011;50720;54.324;18.558;2023-11-21T07:37:39;7.80;;;3.80;;
42912;SDS011;50720;54.324;18.558;2023-11-21T07:40:23;9.48;;;4.63;;
42912;SDS011;50720;54.324;18.558;2023-11-21T07:43:07;7.88;;;4.50;;
42912;SDS011;50720;54.324;18.558;2023-11-21T07:45:52;10.02;;;4.10;;
42912;SDS011;50720;54.324;18.558;2023-11-21T07:48:35;8.90;;;3.72;;
42912;SDS011;50720;54.324;18.558;2023-11-21T07:51:20;10.27;;;4.20;;
42912;SDS011;50720;54.324;18.558;2023-11-21T07:54:04;11.68;;;4.43;;
42912;SDS011;50720;54.324;18.558;2023-11-21T07:56:48;6.78;;;3.85;;
42912;SDS011;50720;54.324;18.558;2023-11-21T07:59:31;8.52;;;3.33;;
42912;SDS011;50720;54.324;18.558;2023-11-21T08:02:15;6.78;;;4.07;;
42912;SDS011;50720;54.324;18.558;2023-11-21T08:04:59;6.47;;;3.92;;
42912;SDS011;50720;54.324;18.558;2023-11-21T08:07:44;7.22;;;4.22;;
42912;SDS011;50720;54.324;18.558;2023-11-21T08:10:28;7.28;;;3.33;;
42912;SDS011;50720;54.324;18.558;2023-11-21T08:13:12;10.23;;;4.88;;
42912;SDS011;50720;54.324;18.558;2023-11-21T08:15:57;8.68;;;3.42;;
42912;SDS011;50720;54.324;18.558;2023-11-21T08:18:44;8.10;;;3.85;;
42912;SDS011;50720;54.324;18.558;2023-11-21T08:21:27;6.60;;;3.17;;
42912;SDS011;50720;54.324;18.558;2023-11-21T08:24:14;6.07;;;3.40;;
42912;SDS011;50720;54.324;18.558;2023-11-21T08:26:59;10.48;;;4.45;;
42912;SDS011;50720;54.324;18.558;2023-11-21T08:29:43;6.95;;;3.38;;
42912;SDS011;50720;54.324;18.558;2023-11-21T08:32:26;5.65;;;3.28;;
42912;SDS011;50720;54.324;18.558;2023-11-21T08:35:10;6.47;;;3.15;;
42912;SDS011;50720;54.324;18.558;2023-11-21T08:37:54;4.57;;;2.33;;
42912;SDS011;50720;54.324;18.558;2023-11-21T08:40:39;3.90;;;2.20;;
42912;SDS011;50720;54.324;18.558;2023-11-21T08:43:23;5.03;;;2.33;;
42912;SDS011;50720;54.324;18.558;2023-11-21T08:46:09;8.75;;;3.17;;
42912;SDS011;50720;54.324;18.558;2023-11-21T08:48:53;3.35;;;1.85;;
42912;SDS011;50720;54.324;18.558;2023-11-21T08:51:37;2.92;;;2.17;;
42912;SDS011;50720;54.324;18.558;2023-11-21T08:54:20;2.67;;;1.70;;
42912;SDS011;50720;54.324;18.558;2023-11-21T08:57:05;6.05;;;3.20;;
42912;SDS011;50720;54.324;18.558;2023-11-21T08:59:49;2.75;;;1.90;;
42912;SDS011;50720;54.324;18.558;2023-11-21T09:02:37;7.03;;;2.55;;
42912;SDS011;50720;54.324;18.558;2023-11-21T09:05:20;4.55;;;2.30;;
42912;SDS011;50720;54.324;18.558;2023-11-21T09:08:04;4.15;;;2.30;;
42912;SDS011;50720;54.324;18.558;2023-11-21T09:10:48;4.75;;;2.63;;
42912;SDS011;50720;54.324;18.558;2023-11-21T09:13:33;5.60;;;1.92;;
42912;SDS011;50720;54.324;18.558;2023-11-21T09:16:19;3.05;;;1.98;;
42912;SDS011;50720;54.324;18.558;2023-11-21T09:19:02;2.92;;;1.80;;
42912;SDS011;50720;54.324;18.558;2023-11-21T09:21:46;3.97;;;1.98;;
42912;SDS011;50720;54.324;18.558;2023-11-21T09:24:30;5.55;;;1.77;;
42912;SDS011;50720;54.324;18.558;2023-11-21T09:27:14;3.50;;;2.17;;
42912;SDS011;50720;54.324;18.558;2023-11-21T09:30:00;3.88;;;1.80;;
42912;SDS011;50720;54.324;18.558;2023-11-21T09:32:44;3.58;;;1.80;;
42912;SDS011;50720;54.324;18.558;2023-11-21T09:35:29;7.28;;;2.55;;
42912;SDS011;50720;54.324;18.558;2023-11-21T09:38:13;3.17;;;1.77;;
42912;SDS011;50720;54.324;18.558;2023-11-21T09:40:57;3.40;;;1.83;;
42912;SDS011;50720;54.324;18.558;2023-11-21T09:43:41;3.97;;;1.65;;
42912;SDS011;50720;54.324;18.558;2023-11-21T09:46:26;11.93;;;3.28;;
42912;SDS011;50720;54.324;18.558;2023-11-21T09:49:11;3.25;;;1.48;;
42912;SDS011;50720;54.324;18.558;2023-11-21T09:51:56;4.60;;;2.03;;
42912;SDS011;50720;54.324;18.558;2023-11-21T09:54:41;6.75;;;1.98;;
42912;SDS011;50720;54.324;18.558;2023-11-21T09:57:24;2.03;;;1.30;;
42912;SDS011;50720;54.324;18.558;2023-11-21T10:00:10;2.90;;;1.63;;
42912;SDS011;50720;54.324;18.558;2023-11-21T10:03:00;5.05;;;1.67;;
42912;SDS011;50720;54.324;18.558;2023-11-21T10:05:45;16.40;;;3.97;;
42912;SDS011;50720;54.324;18.558;2023-11-21T10:08:31;4.97;;;2.17;;
42912;SDS011;50720;54.324;18.558;2023-11-21T10:11:30;2.90;;;2.25;;
42912;SDS011;50720;54.324;18.558;2023-11-21T10:14:15;5.28;;;2.83;;
42912;SDS011;50720;54.324;18.558;2023-11-21T10:17:04;3.80;;;2.15;;
42912;SDS011;50720;54.324;18.558;2023-11-21T10:19:51;4.38;;;2.22;;
42912;SDS011;50720;54.324;18.558;2023-11-21T10:22:37;4.97;;;2.30;;
42912;SDS011;50720;54.324;18.558;2023-11-21T10:25:23;7.15;;;3.10;;
42912;SDS011;50720;54.324;18.558;2023-11-21T10:28:07;4.47;;;2.60;;
42912;SDS011;50720;54.324;18.558;2023-11-21T10:30:52;4.85;;;2.00;;
42912;SDS011;50720;54.324;18.558;2023-11-21T10:33:35;3.90;;;2.10;;
42912;SDS011;50720;54.324;18.558;2023-11-21T10:36:27;5.22;;;2.67;;
42912;SDS011;50720;54.324;18.558;2023-11-21T10:39:13;2.92;;;2.05;;
42912;SDS011;50720;54.324;18.558;2023-11-21T10:42:00;6.95;;;2.30;;
42912;SDS011;50720;54.324;18.558;2023-11-21T10:44:45;6.45;;;2.85;;
42912;SDS011;50720;54.324;18.558;2023-11-21T10:47:30;3.50;;;1.65;;
42912;SDS011;50720;54.324;18.558;2023-11-21T10:50:14;2.85;;;1.73;;
42912;SDS011;50720;54.324;18.558;2023-11-21T10:53:03;2.80;;;1.38;;
42912;SDS011;50720;54.324;18.558;2023-11-21T10:55:47;6.35;;;2.75;;
42912;SDS011;50720;54.324;18.558;2023-11-21T10:58:32;3.55;;;1.75;;
42912;SDS011;50720;54.324;18.558;2023-11-21T11:01:18;4.15;;;2.05;;
42912;SDS011;50720;54.324;18.558;2023-11-21T11:04:04;5.22;;;3.08;;
42912;SDS011;50720;54.324;18.558;2023-11-21T11:06:57;4.90;;;1.70;;
42912;SDS011;50720;54.324;18.558;2023-11-21T11:09:48;5.53;;;2.22;;
42912;SDS011;50720;54.324;18.558;2023-11-21T11:12:31;4.18;;;2.45;;
42912;SDS011;50720;54.324;18.558;2023-11-21T11:15:15;3.38;;;2.60;;
42912;SDS011;50720;54.324;18.558;2023-11-21T11:17:59;2.85;;;2.33;;
42912;SDS011;50720;54.324;18.558;2023-11-21T11:20:45;3.13;;;2.20;;
42912;SDS011;50720;54.324;18.558;2023-11-21T11:23:33;2.17;;;1.67;;
42912;SDS011;50720;54.324;18.558;2023-11-21T11:26:31;4.78;;;3.47;;
42912;SDS011;50720;54.324;18.558;2023-11-21T11:29:23;2.80;;;1.80;;
42912;SDS011;50720;54.324;18.558;2023-11-21T11:32:16;4.28;;;2.63;;
42912;SDS011;50720;54.324;18.558;2023-11-21T11:35:09;6.95;;;2.10;;
42912;SDS011;50720;54.324;18.558;2023-11-21T11:37:58;2.03;;;1.55;;
42912;SDS011;50720;54.324;18.558;2023-11-21T11:40:44;3.40;;;1.70;;
42912;SDS011;50720;54.324;18.558;2023-11-21T11:43:30;3.15;;;1.88;;
42912;SDS011;50720;54.324;18.558;2023-11-21T11:46:22;3.78;;;2.15;;
42912;SDS011;50720;54.324;18.558;2023-11-21T11:49:24;4.15;;;2.00;;
42912;SDS011;50720;54.324;18.558;2023-11-21T11:55:20;4.28;;;2.22;;
42912;SDS011;50720;54.324;18.558;2023-11-21T11:58:05;4.22;;;2.47;;
42912;SDS011;50720;54.324;18.558;2023-11-21T12:00:51;4.07;;;2.13;;
42912;SDS011;50720;54.324;18.558;2023-11-21T12:03:36;3.03;;;2.00;;
42912;SDS011;50720;54.324;18.558;2023-11-21T12:06:30;3.53;;;1.75;;
42912;SDS011;50720;54.324;18.558;2023-11-21T12:09:17;4.57;;;1.98;;
42912;SDS011;50720;54.324;18.558;2023-11-21T12:12:01;3.45;;;1.77;;
42912;SDS011;50720;54.324;18.558;2023-11-21T12:14:45;4.68;;;2.13;;
42912;SDS011;50720;54.324;18.558;2023-11-21T12:17:31;6.20;;;2.35;;
42912;SDS011;50720;54.324;18.558;2023-11-21T12:20:18;5.93;;;1.85;;
42912;SDS011;50720;54.324;18.558;2023-11-21T12:23:02;4.15;;;2.00;;
42912;SDS011;50720;54.324;18.558;2023-11-21T12:25:46;3.95;;;1.73;;
42912;SDS011;50720;54.324;18.558;2023-11-21T12:28:30;4.70;;;2.53;;
42912;SDS011;50720;54.324;18.558;2023-11-21T12:31:15;5.55;;;2.05;;
42912;SDS011;50720;54.324;18.558;2023-11-21T12:34:04;3.25;;;1.70;;
42912;SDS011;50720;54.324;18.558;2023-11-21T12:36:48;4.45;;;2.42;;
42912;SDS011;50720;54.324;18.558;2023-11-21T12:39:32;3.53;;;2.35;;
42912;SDS011;50720;54.324;18.558;2023-11-21T12:42:16;4.43;;;1.90;;
42912;SDS011;50720;54.324;18.558;2023-11-21T12:45:10;7.15;;;2.45;;
42912;SDS011;50720;54.324;18.558;2023-11-21T12:48:01;3.50;;;2.17;;
42912;SDS011;50720;54.324;18.558;2023-11-21T12:50:51;3.03;;;1.88;;
42912;SDS011;50720;54.324;18.558;2023-11-21T12:53:34;5.63;;;2.45;;
42912;SDS011;50720;54.324;18.558;2023-11-21T12:56:21;4.75;;;2.58;;
42912;SDS011;50720;54.324;18.558;2023-11-21T12:59:05;2.70;;;2.08;;
42912;SDS011;50720;54.324;18.558;2023-11-21T13:01:56;4.53;;;2.63;;
42912;SDS011;50720;54.324;18.558;2023-11-21T13:04:51;4.95;;;2.28;;
42912;SDS011;50720;54.324;18.558;2023-11-21T13:07:41;3.80;;;2.30;;
42912;SDS011;50720;54.324;18.558;2023-11-21T13:10:29;4.63;;;2.33;;
42912;SDS011;50720;54.324;18.558;2023-11-21T13:13:15;4.68;;;2.05;;
42912;SDS011;50720;54.324;18.558;2023-11-21T13:16:05;3.35;;;1.73;;
42912;SDS011;50720;54.324;18.558;2023-11-21T13:18:49;3.38;;;1.83;;
42912;SDS011;50720;54.324;18.558;2023-11-21T13:21:33;5.45;;;2.22;;
42912;SDS011;50720;54.324;18.558;2023-11-21T13:24:18;5.03;;;2.22;;
42912;SDS011;50720;54.324;18.558;2023-11-21T13:27:03;4.72;;;2.20;;
42912;SDS011;50720;54.324;18.558;2023-11-21T13:29:48;7.82;;;2.85;;
42912;SDS011;50720;54.324;18.558;2023-11-21T13:32:32;4.97;;;3.05;;
42912;SDS011;50720;54.324;18.558;2023-11-21T13:35:16;6.28;;;2.20;;
42912;SDS011;50720;54.324;18.558;2023-11-21T13:38:05;3.08;;;2.17;;
42912;SDS011;50720;54.324;18.558;2023-11-21T13:40:52;6.28;;;2.63;;
42912;SDS011;50720;54.324;18.558;2023-11-21T13:43:36;5.90;;;2.90;;
42912;SDS011;50720;54.324;18.558;2023-11-21T13:46:20;5.22;;;2.67;;
42912;SDS011;50720;54.324;18.558;2023-11-21T13:49:04;5.38;;;2.50;;
42912;SDS011;50720;54.324;18.558;2023-11-21T13:51:52;6.05;;;2.55;;
42912;SDS011;50720;54.324;18.558;2023-11-21T13:54:37;5.55;;;3.13;;
42912;SDS011;50720;54.324;18.558;2023-11-21T13:57:22;5.28;;;3.00;;
42912;SDS011;50720;54.324;18.558;2023-11-21T14:00:06;8.05;;;3.78;;
42912;SDS011;50720;54.324;18.558;2023-11-21T14:03:04;7.00;;;3.47;;
42912;SDS011;50720;54.324;18.558;2023-11-21T14:05:57;9.30;;;3.97;;
42912;SDS011;50720;54.324;18.558;2023-11-21T14:08:42;7.10;;;4.07;;
42912;SDS011;50720;54.324;18.558;2023-11-21T14:11:26;4.80;;;3.25;;
42912;SDS011;50720;54.324;18.558;2023-11-21T14:14:18;11.18;;;3.13;;
42912;SDS011;50720;54.324;18.558;2023-11-21T14:17:01;7.22;;;3.25;;
42912;SDS011;50720;54.324;18.558;2023-11-21T14:19:49;4.43;;;3.30;;
42912;SDS011;50720;54.324;18.558;2023-11-21T14:22:34;6.43;;;3.17;;
42912;SDS011;50720;54.324;18.558;2023-11-21T14:25:17;6.80;;;4.10;;
42912;SDS011;50720;54.324;18.558;2023-11-21T14:28:02;5.43;;;3.45;;
42912;SDS011;50720;54.324;18.558;2023-11-21T14:30:49;4.75;;;3.13;;
42912;SDS011;50720;54.324;18.558;2023-11-21T14:33:32;10.93;;;3.35;;
42912;SDS011;50720;54.324;18.558;2023-11-21T14:36:16;6.93;;;3.72;;
42912;SDS011;50720;54.324;18.558;2023-11-21T14:38:59;9.55;;;3.50;;
42912;SDS011;50720;54.324;18.558;2023-11-21T14:41:43;4.60;;;2.85;;
42912;SDS011;50720;54.324;18.558;2023-11-21T14:44:26;8.48;;;3.50;;
42912;SDS011;50720;54.324;18.558;2023-11-21T14:47:15;7.68;;;4.22;;
42912;SDS011;50720;54.324;18.558;2023-11-21T14:50:06;5.05;;;2.40;;
42912;SDS011;50720;54.324;18.558;2023-11-21T14:53:12;9.05;;;2.60;;
42912;SDS011;50720;54.324;18.558;2023-11-21T14:55:55;6.75;;;3.20;;
42912;SDS011;50720;54.324;18.558;2023-11-21T14:58:41;6.43;;;2.42;;
42912;SDS011;50720;54.324;18.558;2023-11-21T15:01:26;6.20;;;2.70;;
42912;SDS011;50720;54.324;18.558;2023-11-21T15:04:26;9.40;;;2.92;;
42912;SDS011;50720;54.324;18.558;2023-11-21T15:07:17;10.00;;;3.00;;
42912;SDS011;50720;54.324;18.558;2023-11-21T15:10:00;6.80;;;2.92;;
42912;SDS011;50720;54.324;18.558;2023-11-21T15:12:45;6.25;;;3.50;;
42912;SDS011;50720;54.324;18.558;2023-11-21T15:15:27;10.57;;;3.65;;
42912;SDS011;50720;54.324;18.558;2023-11-21T15:18:13;7.22;;;3.00;;
42912;SDS011;50720;54.324;18.558;2023-11-21T15:20:59;8.07;;;3.35;;
42912;SDS011;50720;54.324;18.558;2023-11-21T15:23:42;15.07;;;3.70;;
42912;SDS011;50720;54.324;18.558;2023-11-21T15:26:26;5.20;;;3.05;;
42912;SDS011;50720;54.324;18.558;2023-11-21T15:29:11;5.50;;;3.00;;
42912;SDS011;50720;54.324;18.558;2023-11-21T15:31:56;4.90;;;2.97;;
42912;SDS011;50720;54.324;18.558;2023-11-21T15:34:39;12.10;;;3.42;;
42912;SDS011;50720;54.324;18.558;2023-11-21T15:37:24;5.95;;;3.60;;
42912;SDS011;50720;54.324;18.558;2023-11-21T15:40:10;7.57;;;4.63;;
42912;SDS011;50720;54.324;18.558;2023-11-21T15:42:56;9.07;;;4.18;;
42912;SDS011;50720;54.324;18.558;2023-11-21T15:45:39;12.38;;;5.00;;
42912;SDS011;50720;54.324;18.558;2023-11-21T15:48:23;10.70;;;5.20;;
42912;SDS011;50720;54.324;18.558;2023-11-21T15:51:07;12.75;;;5.63;;
42912;SDS011;50720;54.324;18.558;2023-11-21T15:53:55;14.15;;;6.75;;
42912;SDS011;50720;54.324;18.558;2023-11-21T15:56:39;9.65;;;4.72;;
42912;SDS011;50720;54.324;18.558;2023-11-21T15:59:24;11.20;;;5.15;;
42912;SDS011;50720;54.324;18.558;2023-11-21T16:02:10;9.10;;;4.30;;
42912;SDS011;50720;54.324;18.558;2023-11-21T16:04:56;12.52;;;4.80;;
42912;SDS011;50720;54.324;18.558;2023-11-21T16:07:41;7.20;;;4.20;;
42912;SDS011;50720;54.324;18.558;2023-11-21T16:10:26;10.25;;;4.93;;
42912;SDS011;50720;54.324;18.558;2023-11-21T16:13:10;12.98;;;5.32;;
42912;SDS011;50720;54.324;18.558;2023-11-21T16:15:54;13.15;;;5.10;;
42912;SDS011;50720;54.324;18.558;2023-11-21T16:18:38;7.70;;;4.53;;